sensor_id;sensor_type;location;lat;lon;timestamp;temperature;humidity
25170;DHT22;13129;48.012;10.352;2023-04-28T03:32:40;8.90;99.90
25170;DHT22;13129;48.012;10.352;2023-04-28T03:35:06;8.90;99.90
25170;DHT22;13129;48.012;10.352;2023-04-28T03:37:32;8.90;99.90
25170;DHT22;13129;48.012;10.352;2023-04-28T03:39:57;8.90;99.90
25170;DHT22;13129;48.012;10.352;2023-04-28T03:42:23;8.90;99.90
25170;DHT22;13129;48.012;10.352;2023-04-28T03:44:50;8.90;99.90
25170;DHT22;13129;48.012;10.352;2023-04-28T03:47:16;8.90;99.90
25170;DHT22;13129;48.012;10.352;2023-04-28T03:49:41;8.80;99.90
25170;DHT22;13129;48.012;10.352;2023-04-28T03:52:07;8.80;99.90
25170;DHT22;13129;48.012;10.352;2023-04-28T03:54:32;8.80;99.90
25170;DHT22;13129;48.012;10.352;2023-04-28T03:56:58;8.90;99.90
25170;DHT22;13129;48.012;10.352;2023-04-28T03:59:25;8.90;99.90
25170;DHT22;13129;48.012;10.352;2023-04-28T04:01:51;9.00;99.90
25170;DHT22;13129;48.012;10.352;2023-04-28T04:04:16;9.10;99.90
25170;DHT22;13129;48.012;10.352;2023-04-28T04:06:42;9.20;99.90
25170;DHT22;13129;48.012;10.352;2023-04-28T04:09:08;9.20;99.90
25170;DHT22;13129;48.012;10.352;2023-04-28T04:11:33;9.30;99.90
25170;DHT22;13129;48.012;10.352;2023-04-28T04:13:59;9.30;99.90
25170;DHT22;13129;48.012;10.352;2023-04-28T04:16:24;9.40;99.90
25170;DHT22;13129;48.012;10.352;2023-04-28T04:18:50;9.50;99.90
25170;DHT22;13129;48.012;10.352;2023-04-28T04:21:16;9.70;99.90
25170;DHT22;13129;48.012;10.352;2023-04-28T04:23:41;9.80;99.90
25170;DHT22;13129;48.012;10.352;2023-04-28T04:26:07;9.90;99.90
25170;DHT22;13129;48.012;10.352;2023-04-28T04:28:33;10.00;99.90
25170;DHT22;13129;48.012;10.352;2023-04-28T04:30:58;10.00;99.90
25170;DHT22;13129;48.012;10.352;2023-04-28T04:33:24;10.10;99.90
25170;DHT22;13129;48.012;10.352;2023-04-28T04:35:49;10.10;99.90
25170;DHT22;13129;48.012;10.352;2023-04-28T04:38:15;10.10;99.90
25170;DHT22;13129;48.012;10.352;2023-04-28T04:40:41;10.00;99.90
25170;DHT22;13129;48.012;10.352;2023-04-28T04:43:07;10.00;99.90
25170;DHT22;13129;48.012;10.352;2023-04-28T04:45:33;10.00;99.90
25170;DHT22;13129;48.012;10.352;2023-04-28T04:47:59;10.00;99.90
25170;DHT22;13129;48.012;10.352;2023-04-28T04:50:24;9.90;99.90
25170;DHT22;13129;48.012;10.352;2023-04-28T04:52:50;9.90;99.90
25170;DHT22;13129;48.012;10.352;2023-04-28T04:55:16;9.90;99.90
25170;DHT22;13129;48.012;10.352;2023-04-28T04:57:41;9.90;99.90
25170;DHT22;13129;48.012;10.352;2023-04-28T05:00:07;9.80;99.90
25170;DHT22;13129;48.012;10.352;2023-04-28T05:02:34;9.80;99.90
25170;DHT22;13129;48.012;10.352;2023-04-28T05:04:59;9.70;99.90
25170;DHT22;13129;48.012;10.352;2023-04-28T05:07:25;9.70;99.90
25170;DHT22;13129;48.012;10.352;2023-04-28T05:09:51;9.70;99.90
25170;DHT22;13129;48.012;10.352;2023-04-28T05:12:16;9.70;99.90
25170;DHT22;13129;48.012;10.352;2023-04-28T05:14:42;9.70;99.90
25170;DHT22;13129;48.012;10.352;2023-04-28T05:17:08;9.70;99.90
25170;DHT22;13129;48.012;10.352;2023-04-28T05:19:34;9.70;99.90
25170;DHT22;13129;48.012;10.352;2023-04-28T05:21:59;9.70;99.90
25170;DHT22;13129;48.012;10.352;2023-04-28T05:24:26;9.70;99.90
25170;DHT22;13129;48.012;10.352;2023-04-28T05:26:52;9.80;99.90
25170;DHT22;13129;48.012;10.352;2023-04-28T05:29:21;9.80;99.90
25170;DHT22;13129;48.012;10.352;2023-04-28T05:31:47;9.80;99.90
25170;DHT22;13129;48.012;10.352;2023-04-28T05:34:13;9.80;99.90
25170;DHT22;13129;48.012;10.352;2023-04-28T05:36:38;9.80;99.90
25170;DHT22;13129;48.012;10.352;2023-04-28T05:39:04;9.90;99.90
25170;DHT22;13129;48.012;10.352;2023-04-28T05:41:30;9.90;99.90
25170;DHT22;13129;48.012;10.352;2023-04-28T05:43:55;10.00;99.90
25170;DHT22;13129;48.012;10.352;2023-04-28T05:46:21;10.10;99.90
25170;DHT22;13129;48.012;10.352;2023-04-28T05:48:47;10.10;99.90
25170;DHT22;13129;48.012;10.352;2023-04-28T05:51:12;10.10;99.90
25170;DHT22;13129;48.012;10.352;2023-04-28T05:53:38;10.10;99.90
25170;DHT22;13129;48.012;10.352;2023-04-28T05:56:04;10.10;99.90
25170;DHT22;13129;48.012;10.352;2023-04-28T05:58:29;10.20;99.90
25170;DHT22;13129;48.012;10.352;2023-04-28T06:00:56;10.20;99.90
25170;DHT22;13129;48.012;10.352;2023-04-28T06:03:22;10.20;99.90
25170;DHT22;13129;48.012;10.352;2023-04-28T06:05:48;10.20;99.90
25170;DHT22;13129;48.012;10.352;2023-04-28T06:08:14;10.20;99.90
25170;DHT22;13129;48.012;10.352;2023-04-28T06:10:40;10.20;99.90
25170;DHT22;13129;48.012;10.352;2023-04-28T06:13:06;10.20;99.90
25170;DHT22;13129;48.012;10.352;2023-04-28T06:15:32;10.20;99.90
25170;DHT22;13129;48.012;10.352;2023-04-28T06:17:58;10.30;99.90
25170;DHT22;13129;48.012;10.352;2023-04-28T06:20:24;10.30;99.90
25170;DHT22;13129;48.012;10.352;2023-04-28T06:22:49;10.30;99.90
25170;DHT22;13129;48.012;10.352;2023-04-28T06:25:15;10.40;99.90
25170;DHT22;13129;48.012;10.352;2023-04-28T06:27:41;10.40;99.90
25170;DHT22;13129;48.012;10.352;2023-04-28T06:30:07;10.50;99.90
25170;DHT22;13129;48.012;10.352;2023-04-28T06:32:33;10.50;99.90
25170;DHT22;13129;48.012;10.352;2023-04-28T06:34:58;10.50;99.90
25170;DHT22;13129;48.012;10.352;2023-04-28T06:37:24;10.50;99.90
25170;DHT22;13129;48.012;10.352;2023-04-28T06:39:49;10.50;99.90
25170;DHT22;13129;48.012;10.352;2023-04-28T06:42:15;10.60;99.90
25170;DHT22;13129;48.012;10.352;2023-04-28T06:44:43;10.70;99.90
25170;DHT22;13129;48.012;10.352;2023-04-28T06:47:09;10.80;99.90
25170;DHT22;13129;48.012;10.352;2023-04-28T06:49:35;10.90;99.90
25170;DHT22;13129;48.012;10.352;2023-04-28T06:52:01;11.00;99.90
25170;DHT22;13129;48.012;10.352;2023-04-28T06:54:27;11.20;99.90
25170;DHT22;13129;48.012;10.352;2023-04-28T06:56:52;11.40;99.90
25170;DHT22;13129;48.012;10.352;2023-04-28T06:59:18;11.50;99.90
25170;DHT22;13129;48.012;10.352;2023-04-28T07:01:43;11.60;99.90
25170;DHT22;13129;48.012;10.352;2023-04-28T07:04:09;11.60;99.90
25170;DHT22;13129;48.012;10.352;2023-04-28T07:06:35;11.60;99.90
25170;DHT22;13129;48.012;10.352;2023-04-28T07:09:00;11.70;99.90
25170;DHT22;13129;48.012;10.352;2023-04-28T07:11:26;11.60;99.90
25170;DHT22;13129;48.012;10.352;2023-04-28T07:13:52;11.50;99.90
25170;DHT22;13129;48.012;10.352;2023-04-28T07:16:18;11.50;99.90
25170;DHT22;13129;48.012;10.352;2023-04-28T07:18:43;11.40;99.90
25170;DHT22;13129;48.012;10.352;2023-04-28T07:21:10;11.40;99.90
25170;DHT22;13129;48.012;10.352;2023-04-28T07:23:35;11.40;99.90
25170;DHT22;13129;48.012;10.352;2023-04-28T07:26:03;11.50;99.90
25170;DHT22;13129;48.012;10.352;2023-04-28T07:28:29;11.60;99.90
25170;DHT22;13129;48.012;10.352;2023-04-28T07:30:55;11.70;99.90
25170;DHT22;13129;48.012;10.352;2023-04-28T07:33:23;11.80;99.90
25170;DHT22;13129;48.012;10.352;2023-04-28T07:35:48;11.80;99.90
25170;DHT22;13129;48.012;10.352;2023-04-28T07:38:14;11.90;99.90
25170;DHT22;13129;48.012;10.352;2023-04-28T07:40:42;12.00;99.90
25170;DHT22;13129;48.012;10.352;2023-04-28T07:43:08;12.10;99.90
25170;DHT22;13129;48.012;10.352;2023-04-28T07:45:37;12.10;99.90
25170;DHT22;13129;48.012;10.352;2023-04-28T07:48:03;12.00;99.90
25170;DHT22;13129;48.012;10.352;2023-04-28T07:50:29;11.90;99.90
25170;DHT22;13129;48.012;10.352;2023-04-28T07:52:54;12.00;99.90
25170;DHT22;13129;48.012;10.352;2023-04-28T07:55:20;12.10;99.90
25170;DHT22;13129;48.012;10.352;2023-04-28T07:57:46;12.20;99.90
25170;DHT22;13129;48.012;10.352;2023-04-28T08:00:12;12.20;99.90
25170;DHT22;13129;48.012;10.352;2023-04-28T08:02:38;12.20;99.90
25170;DHT22;13129;48.012;10.352;2023-04-28T08:05:04;12.20;99.90
25170;DHT22;13129;48.012;10.352;2023-04-28T08:07:31;12.30;99.90
25170;DHT22;13129;48.012;10.352;2023-04-28T08:09:57;12.30;99.90
25170;DHT22;13129;48.012;10.352;2023-04-28T08:12:22;12.20;99.90
25170;DHT22;13129;48.012;10.352;2023-04-28T08:14:48;12.10;99.90
25170;DHT22;13129;48.012;10.352;2023-04-28T08:17:13;12.00;99.90
25170;DHT22;13129;48.012;10.352;2023-04-28T08:19:39;11.90;99.90
25170;DHT22;13129;48.012;10.352;2023-04-28T08:22:05;11.90;99.90
25170;DHT22;13129;48.012;10.352;2023-04-28T08:24:32;11.90;99.90
25170;DHT22;13129;48.012;10.352;2023-04-28T08:27:01;11.80;99.90
25170;DHT22;13129;48.012;10.352;2023-04-28T08:29:31;11.80;99.90
25170;DHT22;13129;48.012;10.352;2023-04-28T08:31:57;11.70;99.90
25170;DHT22;13129;48.012;10.352;2023-04-28T08:34:23;11.80;99.90
25170;DHT22;13129;48.012;10.352;2023-04-28T08:36:48;11.80;99.90
25170;DHT22;13129;48.012;10.352;2023-04-28T08:39:14;11.80;99.90
25170;DHT22;13129;48.012;10.352;2023-04-28T08:41:40;11.70;99.90
25170;DHT22;13129;48.012;10.352;2023-04-28T08:44:09;11.60;99.90
25170;DHT22;13129;48.012;10.352;2023-04-28T08:46:39;11.50;99.90
25170;DHT22;13129;48.012;10.352;2023-04-28T08:49:06;11.50;99.90
25170;DHT22;13129;48.012;10.352;2023-04-28T08:51:44;11.50;99.90
25170;DHT22;13129;48.012;10.352;2023-04-28T08:54:10;11.40;99.90
25170;DHT22;13129;48.012;10.352;2023-04-28T08:56:38;11.40;99.90
25170;DHT22;13129;48.012;10.352;2023-04-28T08:59:04;11.40;99.90
25170;DHT22;13129;48.012;10.352;2023-04-28T09:01:31;11.40;99.90
25170;DHT22;13129;48.012;10.352;2023-04-28T09:03:59;11.30;99.90
25170;DHT22;13129;48.012;10.352;2023-04-28T09:06:25;11.30;99.90
25170;DHT22;13129;48.012;10.352;2023-04-28T09:08:50;11.40;99.90
25170;DHT22;13129;48.012;10.352;2023-04-28T09:11:16;11.50;99.90
25170;DHT22;13129;48.012;10.352;2023-04-28T09:13:41;11.60;99.90
25170;DHT22;13129;48.012;10.352;2023-04-28T09:16:07;11.70;99.90
25170;DHT22;13129;48.012;10.352;2023-04-28T09:18:33;11.80;99.90
25170;DHT22;13129;48.012;10.352;2023-04-28T09:21:06;11.80;99.90
25170;DHT22;13129;48.012;10.352;2023-04-28T09:23:32;11.90;99.90
25170;DHT22;13129;48.012;10.352;2023-04-28T09:26:02;11.90;99.90
25170;DHT22;13129;48.012;10.352;2023-04-28T09:28:30;11.90;99.90
25170;DHT22;13129;48.012;10.352;2023-04-28T09:30:56;12.00;99.90
25170;DHT22;13129;48.012;10.352;2023-04-28T09:33:22;12.20;99.90
25170;DHT22;13129;48.012;10.352;2023-04-28T09:35:48;12.30;99.90
25170;DHT22;13129;48.012;10.352;2023-04-28T09:38:15;12.40;99.90
25170;DHT22;13129;48.012;10.352;2023-04-28T09:40:55;12.40;99.90
25170;DHT22;13129;48.012;10.352;2023-04-28T09:45:51;12.30;99.90
25170;DHT22;13129;48.012;10.352;2023-04-28T09:48:29;12.20;99.90
25170;DHT22;13129;48.012;10.352;2023-04-28T09:50:56;12.10;99.90
25170;DHT22;13129;48.012;10.352;2023-04-28T09:53:22;12.20;99.90
25170;DHT22;13129;48.012;10.352;2023-04-28T09:55:49;12.20;99.90
25170;DHT22;13129;48.012;10.352;2023-04-28T09:58:19;12.20;99.90
25170;DHT22;13129;48.012;10.352;2023-04-28T10:00:45;12.30;99.90
25170;DHT22;13129;48.012;10.352;2023-04-28T10:03:13;12.30;99.90
25170;DHT22;13129;48.012;10.352;2023-04-28T10:05:40;12.30;99.90
25170;DHT22;13129;48.012;10.352;2023-04-28T10:08:06;12.60;99.90
25170;DHT22;13129;48.012;10.352;2023-04-28T10:10:32;12.80;99.90
25170;DHT22;13129;48.012;10.352;2023-04-28T10:12:58;13.00;99.90
25170;DHT22;13129;48.012;10.352;2023-04-28T10:15:26;13.10;99.90
25170;DHT22;13129;48.012;10.352;2023-04-28T10:17:52;13.10;99.90
25170;DHT22;13129;48.012;10.352;2023-04-28T10:20:18;13.10;99.90
25170;DHT22;13129;48.012;10.352;2023-04-28T10:25:28;13.40;99.90
25170;DHT22;13129;48.012;10.352;2023-04-28T10:27:57;13.50;99.90
25170;DHT22;13129;48.012;10.352;2023-04-28T10:30:25;13.50;99.90
25170;DHT22;13129;48.012;10.352;2023-04-28T10:35:44;13.40;99.90
25170;DHT22;13129;48.012;10.352;2023-04-28T10:38:13;13.40;99.90
25170;DHT22;13129;48.012;10.352;2023-04-28T10:40:41;13.40;99.90
25170;DHT22;13129;48.012;10.352;2023-04-28T10:43:11;13.30;99.90
25170;DHT22;13129;48.012;10.352;2023-04-28T10:56:20;13.20;99.90
25170;DHT22;13129;48.012;10.352;2023-04-28T10:58:46;13.30;99.90
25170;DHT22;13129;48.012;10.352;2023-04-28T11:04:08;13.40;99.90
25170;DHT22;13129;48.012;10.352;2023-04-28T11:06:46;13.40;99.90
25170;DHT22;13129;48.012;10.352;2023-04-28T11:16:59;13.90;99.90
25170;DHT22;13129;48.012;10.352;2023-04-28T11:21:58;14.50;99.90
25170;DHT22;13129;48.012;10.352;2023-04-28T11:24:24;14.70;99.90
25170;DHT22;13129;48.012;10.352;2023-04-28T11:26:50;14.90;99.90
25170;DHT22;13129;48.012;10.352;2023-04-28T11:29:31;15.00;99.90
25170;DHT22;13129;48.012;10.352;2023-04-28T11:31:57;15.00;99.90
25170;DHT22;13129;48.012;10.352;2023-04-28T11:34:24;15.00;99.90
25170;DHT22;13129;48.012;10.352;2023-04-28T11:36:49;15.00;99.90
25170;DHT22;13129;48.012;10.352;2023-04-28T11:39:15;14.80;99.90
25170;DHT22;13129;48.012;10.352;2023-04-28T11:41:43;14.50;99.90
25170;DHT22;13129;48.012;10.352;2023-04-28T11:44:12;14.40;99.90
25170;DHT22;13129;48.012;10.352;2023-04-28T11:46:47;14.30;99.90
25170;DHT22;13129;48.012;10.352;2023-04-28T11:49:16;14.30;99.90
25170;DHT22;13129;48.012;10.352;2023-04-28T11:51:42;14.50;99.90
25170;DHT22;13129;48.012;10.352;2023-04-28T11:54:10;14.60;99.90
25170;DHT22;13129;48.012;10.352;2023-04-28T11:56:42;14.70;99.90
25170;DHT22;13129;48.012;10.352;2023-04-28T11:59:10;14.90;99.90
25170;DHT22;13129;48.012;10.352;2023-04-28T12:02:04;14.90;99.90
25170;DHT22;13129;48.012;10.352;2023-04-28T12:07:09;14.40;99.90
25170;DHT22;13129;48.012;10.352;2023-04-28T12:09:46;14.20;99.90
25170;DHT22;13129;48.012;10.352;2023-04-28T12:14:54;14.10;99.90
25170;DHT22;13129;48.012;10.352;2023-04-28T12:17:40;14.00;99.90
25170;DHT22;13129;48.012;10.352;2023-04-28T12:20:10;14.00;99.90
25170;DHT22;13129;48.012;10.352;2023-04-28T12:22:46;14.10;99.90
25170;DHT22;13129;48.012;10.352;2023-04-28T12:25:13;14.30;99.90
25170;DHT22;13129;48.012;10.352;2023-04-28T12:27:41;14.30;99.90
25170;DHT22;13129;48.012;10.352;2023-04-28T12:32:47;14.50;99.90
25170;DHT22;13129;48.012;10.352;2023-04-28T12:35:13;14.60;99.90
25170;DHT22;13129;48.012;10.352;2023-04-28T12:37:40;14.90;99.90
25170;DHT22;13129;48.012;10.352;2023-04-28T12:40:07;15.10;99.90
25170;DHT22;13129;48.012;10.352;2023-04-28T12:42:34;15.40;99.90
25170;DHT22;13129;48.012;10.352;2023-04-28T12:44:59;15.70;99.90
25170;DHT22;13129;48.012;10.352;2023-04-28T12:47:25;15.90;99.90
25170;DHT22;13129;48.012;10.352;2023-04-28T12:49:51;15.90;99.90
25170;DHT22;13129;48.012;10.352;2023-04-28T12:52:21;16.00;99.90
25170;DHT22;13129;48.012;10.352;2023-04-28T12:54:47;16.20;99.90
25170;DHT22;13129;48.012;10.352;2023-04-28T12:57:14;16.30;99.90
25170;DHT22;13129;48.012;10.352;2023-04-28T12:59:40;16.40;99.90
25170;DHT22;13129;48.012;10.352;2023-04-28T13:02:06;16.10;99.90
25170;DHT22;13129;48.012;10.352;2023-04-28T13:04:32;16.00;99.90
25170;DHT22;13129;48.012;10.352;2023-04-28T13:06:58;15.70;99.90
25170;DHT22;13129;48.012;10.352;2023-04-28T13:09:24;15.50;99.90
25170;DHT22;13129;48.012;10.352;2023-04-28T13:11:50;15.40;99.90
25170;DHT22;13129;48.012;10.352;2023-04-28T13:14:20;15.40;99.90
25170;DHT22;13129;48.012;10.352;2023-04-28T13:16:46;15.60;99.90
25170;DHT22;13129;48.012;10.352;2023-04-28T13:19:12;15.70;99.90
25170;DHT22;13129;48.012;10.352;2023-04-28T13:21:42;15.70;99.90
25170;DHT22;13129;48.012;10.352;2023-04-28T13:24:09;15.70;99.90
25170;DHT22;13129;48.012;10.352;2023-04-28T13:26:35;15.80;99.90
25170;DHT22;13129;48.012;10.352;2023-04-28T13:29:02;15.70;99.90
25170;DHT22;13129;48.012;10.352;2023-04-28T13:31:29;15.60;99.90
25170;DHT22;13129;48.012;10.352;2023-04-28T13:33:55;15.50;99.90
25170;DHT22;13129;48.012;10.352;2023-04-28T13:36:21;15.60;99.90
25170;DHT22;13129;48.012;10.352;2023-04-28T13:38:47;15.60;99.90
25170;DHT22;13129;48.012;10.352;2023-04-28T13:41:16;15.70;99.90
25170;DHT22;13129;48.012;10.352;2023-04-28T13:43:43;15.80;99.90
25170;DHT22;13129;48.012;10.352;2023-04-28T13:46:09;15.70;99.90
25170;DHT22;13129;48.012;10.352;2023-04-28T13:48:35;15.60;99.90
25170;DHT22;13129;48.012;10.352;2023-04-28T13:51:04;15.40;99.90
25170;DHT22;13129;48.012;10.352;2023-04-28T13:53:30;15.20;99.90
25170;DHT22;13129;48.012;10.352;2023-04-28T13:55:56;14.90;99.90
25170;DHT22;13129;48.012;10.352;2023-04-28T13:58:27;14.70;99.90
25170;DHT22;13129;48.012;10.352;2023-04-28T14:00:53;14.80;99.90
25170;DHT22;13129;48.012;10.352;2023-04-28T14:03:19;15.00;99.90
25170;DHT22;13129;48.012;10.352;2023-04-28T14:05:53;15.20;99.90
25170;DHT22;13129;48.012;10.352;2023-04-28T14:08:19;15.20;99.90
25170;DHT22;13129;48.012;10.352;2023-04-28T14:10:44;15.30;99.90
25170;DHT22;13129;48.012;10.352;2023-04-28T14:13:10;15.40;99.90
25170;DHT22;13129;48.012;10.352;2023-04-28T14:15:36;15.40;99.90
25170;DHT22;13129;48.012;10.352;2023-04-28T14:18:03;15.50;99.90
25170;DHT22;13129;48.012;10.352;2023-04-28T14:20:29;15.50;99.90
25170;DHT22;13129;48.012;10.352;2023-04-28T14:22:55;15.60;99.90
25170;DHT22;13129;48.012;10.352;2023-04-28T14:25:21;15.50;99.90
25170;DHT22;13129;48.012;10.352;2023-04-28T14:27:50;15.40;99.90
25170;DHT22;13129;48.012;10.352;2023-04-28T14:30:16;15.20;99.90
25170;DHT22;13129;48.012;10.352;2023-04-28T14:32:43;15.10;99.90
25170;DHT22;13129;48.012;10.352;2023-04-28T14:35:10;14.90;99.90
25170;DHT22;13129;48.012;10.352;2023-04-28T14:37:36;14.80;99.90
25170;DHT22;13129;48.012;10.352;2023-04-28T14:40:02;14.60;99.90
25170;DHT22;13129;48.012;10.352;2023-04-28T14:42:31;14.50;99.90
25170;DHT22;13129;48.012;10.352;2023-04-28T14:44:58;14.40;99.90
25170;DHT22;13129;48.012;10.352;2023-04-28T14:47:24;14.30;99.90
25170;DHT22;13129;48.012;10.352;2023-04-28T14:49:51;14.30;99.90
25170;DHT22;13129;48.012;10.352;2023-04-28T14:52:25;14.30;99.90
25170;DHT22;13129;48.012;10.352;2023-04-28T14:54:55;14.40;99.90
25170;DHT22;13129;48.012;10.352;2023-04-28T14:57:23;14.40;99.90
25170;DHT22;13129;48.012;10.352;2023-04-28T14:59:48;14.40;99.90
25170;DHT22;13129;48.012;10.352;2023-04-28T15:02:16;14.50;99.90
25170;DHT22;13129;48.012;10.352;2023-04-28T15:04:43;14.60;99.90
25170;DHT22;13129;48.012;10.352;2023-04-28T15:07:10;14.90;99.90
25170;DHT22;13129;48.012;10.352;2023-04-28T15:09:36;14.90;99.90
25170;DHT22;13129;48.012;10.352;2023-04-28T15:12:02;14.90;99.90
25170;DHT22;13129;48.012;10.352;2023-04-28T15:14:30;14.80;99.90
25170;DHT22;13129;48.012;10.352;2023-04-28T15:16:56;14.70;99.90
25170;DHT22;13129;48.012;10.352;2023-04-28T15:19:22;14.50;99.90
25170;DHT22;13129;48.012;10.352;2023-04-28T15:21:48;14.40;99.90
25170;DHT22;13129;48.012;10.352;2023-04-28T15:24:16;14.20;99.90
25170;DHT22;13129;48.012;10.352;2023-04-28T15:26:42;14.10;99.90
25170;DHT22;13129;48.012;10.352;2023-04-28T15:29:09;14.00;99.90
25170;DHT22;13129;48.012;10.352;2023-04-28T15:31:36;13.90;99.90
25170;DHT22;13129;48.012;10.352;2023-04-28T15:34:01;13.90;99.90
25170;DHT22;13129;48.012;10.352;2023-04-28T15:36:27;13.80;99.90
25170;DHT22;13129;48.012;10.352;2023-04-28T15:38:53;13.90;99.90
25170;DHT22;13129;48.012;10.352;2023-04-28T15:41:19;13.80;99.90
25170;DHT22;13129;48.012;10.352;2023-04-28T15:43:45;13.80;99.90
25170;DHT22;13129;48.012;10.352;2023-04-28T15:46:11;13.80;99.90
25170;DHT22;13129;48.012;10.352;2023-04-28T15:48:40;13.80;99.90
25170;DHT22;13129;48.012;10.352;2023-04-28T15:51:06;13.90;99.90
25170;DHT22;13129;48.012;10.352;2023-04-28T15:53:32;14.10;99.90
25170;DHT22;13129;48.012;10.352;2023-04-28T15:55:58;14.20;99.90
25170;DHT22;13129;48.012;10.352;2023-04-28T15:58:25;14.30;99.90
25170;DHT22;13129;48.012;10.352;2023-04-28T16:00:50;14.30;99.90
25170;DHT22;13129;48.012;10.352;2023-04-28T16:03:16;14.40;99.90
25170;DHT22;13129;48.012;10.352;2023-04-28T16:05:42;14.40;99.90
25170;DHT22;13129;48.012;10.352;2023-04-28T16:08:08;14.40;99.90
25170;DHT22;13129;48.012;10.352;2023-04-28T16:10:34;14.40;99.90
25170;DHT22;13129;48.012;10.352;2023-04-28T16:13:00;14.50;99.90
25170;DHT22;13129;48.012;10.352;2023-04-28T16:15:25;14.50;99.90
25170;DHT22;13129;48.012;10.352;2023-04-28T16:17:51;14.60;99.90
25170;DHT22;13129;48.012;10.352;2023-04-28T16:20:18;14.50;99.90
25170;DHT22;13129;48.012;10.352;2023-04-28T16:22:43;14.50;99.90
25170;DHT22;13129;48.012;10.352;2023-04-28T16:25:10;14.60;99.90
25170;DHT22;13129;48.012;10.352;2023-04-28T16:27:36;14.80;99.90
25170;DHT22;13129;48.012;10.352;2023-04-28T16:30:03;14.90;99.90
25170;DHT22;13129;48.012;10.352;2023-04-28T16:32:31;14.90;99.90
25170;DHT22;13129;48.012;10.352;2023-04-28T16:34:58;15.00;99.90
25170;DHT22;13129;48.012;10.352;2023-04-28T16:37:24;15.00;99.90
25170;DHT22;13129;48.012;10.352;2023-04-28T16:39:50;15.00;99.90
25170;DHT22;13129;48.012;10.352;2023-04-28T16:42:15;15.20;99.90
25170;DHT22;13129;48.012;10.352;2023-04-28T16:44:41;15.30;99.90
25170;DHT22;13129;48.012;10.352;2023-04-28T16:47:07;15.50;99.90
25170;DHT22;13129;48.012;10.352;2023-04-28T16:49:33;15.60;99.90
25170;DHT22;13129;48.012;10.352;2023-04-28T16:52:00;15.70;99.90
25170;DHT22;13129;48.012;10.352;2023-04-28T16:54:27;15.70;99.90
25170;DHT22;13129;48.012;10.352;2023-04-28T16:56:53;15.70;99.90
25170;DHT22;13129;48.012;10.352;2023-04-28T16:59:19;15.60;99.90
25170;DHT22;13129;48.012;10.352;2023-04-28T17:01:45;15.50;99.90
25170;DHT22;13129;48.012;10.352;2023-04-28T17:04:12;15.30;99.90
25170;DHT22;13129;48.012;10.352;2023-04-28T17:06:39;15.20;99.90
25170;DHT22;13129;48.012;10.352;2023-04-28T17:09:05;15.00;99.90
25170;DHT22;13129;48.012;10.352;2023-04-28T17:11:30;14.90;99.90
25170;DHT22;13129;48.012;10.352;2023-04-28T17:13:56;14.90;99.90
25170;DHT22;13129;48.012;10.352;2023-04-28T17:16:23;14.80;99.90
25170;DHT22;13129;48.012;10.352;2023-04-28T17:18:48;14.70;99.90
25170;DHT22;13129;48.012;10.352;2023-04-28T17:21:16;14.60;99.90
25170;DHT22;13129;48.012;10.352;2023-04-28T17:23:42;14.60;99.90
25170;DHT22;13129;48.012;10.352;2023-04-28T17:26:09;14.50;99.90
25170;DHT22;13129;48.012;10.352;2023-04-28T17:28:34;14.40;99.90
25170;DHT22;13129;48.012;10.352;2023-04-28T17:31:00;14.30;99.90
25170;DHT22;13129;48.012;10.352;2023-04-28T17:33:28;14.20;99.90
25170;DHT22;13129;48.012;10.352;2023-04-28T17:35:53;14.10;99.90
25170;DHT22;13129;48.012;10.352;2023-04-28T17:38:19;14.00;99.90
25170;DHT22;13129;48.012;10.352;2023-04-28T17:40:45;14.00;99.90
25170;DHT22;13129;48.012;10.352;2023-04-28T17:43:13;13.90;99.90
25170;DHT22;13129;48.012;10.352;2023-04-28T17:45:40;13.90;99.90
25170;DHT22;13129;48.012;10.352;2023-04-28T17:48:06;13.90;99.90
25170;DHT22;13129;48.012;10.352;2023-04-28T17:50:32;13.80;99.90
25170;DHT22;13129;48.012;10.352;2023-04-28T17:52:57;13.80;99.90
25170;DHT22;13129;48.012;10.352;2023-04-28T17:55:23;13.80;99.90
25170;DHT22;13129;48.012;10.352;2023-04-28T17:57:50;13.70;99.90
25170;DHT22;13129;48.012;10.352;2023-04-28T18:00:17;13.60;99.90
25170;DHT22;13129;48.012;10.352;2023-04-28T18:02:43;13.60;99.90
25170;DHT22;13129;48.012;10.352;2023-04-28T18:05:08;13.50;99.90
25170;DHT22;13129;48.012;10.352;2023-04-28T18:07:34;13.50;99.90
25170;DHT22;13129;48.012;10.352;2023-04-28T18:10:02;13.50;99.90
25170;DHT22;13129;48.012;10.352;2023-04-28T18:12:28;13.40;99.90
25170;DHT22;13129;48.012;10.352;2023-04-28T18:14:54;13.40;99.90
25170;DHT22;13129;48.012;10.352;2023-04-28T18:17:22;13.30;99.90
25170;DHT22;13129;48.012;10.352;2023-04-28T18:19:50;13.30;99.90
25170;DHT22;13129;48.012;10.352;2023-04-28T18:22:19;13.20;99.90
25170;DHT22;13129;48.012;10.352;2023-04-28T18:24:45;13.30;99.90
25170;DHT22;13129;48.012;10.352;2023-04-28T18:27:13;13.20;99.90
25170;DHT22;13129;48.012;10.352;2023-04-28T18:29:38;13.20;99.90
25170;DHT22;13129;48.012;10.352;2023-04-28T18:32:04;13.10;99.90
25170;DHT22;13129;48.012;10.352;2023-04-28T18:34:30;13.10;99.90
25170;DHT22;13129;48.012;10.352;2023-04-28T18:36:55;13.10;99.90
25170;DHT22;13129;48.012;10.352;2023-04-28T18:39:21;13.10;99.90
25170;DHT22;13129;48.012;10.352;2023-04-28T18:41:47;13.00;99.90
25170;DHT22;13129;48.012;10.352;2023-04-28T18:44:12;12.90;99.90
25170;DHT22;13129;48.012;10.352;2023-04-28T18:46:38;12.90;99.90
25170;DHT22;13129;48.012;10.352;2023-04-28T18:49:04;12.80;99.90
25170;DHT22;13129;48.012;10.352;2023-04-28T18:51:31;12.80;99.90
25170;DHT22;13129;48.012;10.352;2023-04-28T18:53:56;12.80;99.90
25170;DHT22;13129;48.012;10.352;2023-04-28T18:56:22;12.80;99.90
25170;DHT22;13129;48.012;10.352;2023-04-28T18:58:49;12.80;99.90
25170;DHT22;13129;48.012;10.352;2023-04-28T19:01:15;12.80;99.90
25170;DHT22;13129;48.012;10.352;2023-04-28T19:03:42;12.80;99.90
25170;DHT22;13129;48.012;10.352;2023-04-28T19:06:08;12.80;99.90
25170;DHT22;13129;48.012;10.352;2023-04-28T19:08:35;12.80;99.90
25170;DHT22;13129;48.012;10.352;2023-04-28T19:11:07;12.80;99.90
25170;DHT22;13129;48.012;10.352;2023-04-28T19:13:34;12.80;99.90
25170;DHT22;13129;48.012;10.352;2023-04-28T19:16:01;12.80;99.90
25170;DHT22;13129;48.012;10.352;2023-04-28T19:18:28;12.80;99.90
25170;DHT22;13129;48.012;10.352;2023-04-28T19:21:00;12.80;99.90
25170;DHT22;13129;48.012;10.352;2023-04-28T19:23:27;12.80;99.90
25170;DHT22;13129;48.012;10.352;2023-04-28T19:25:54;12.80;99.90